createdAt,value
2016-12-03T00:00:14.628Z,1009.38
2016-12-03T00:00:36.351Z,1009.35
2016-12-03T00:00:58.074Z,1009.50
2016-12-03T00:01:19.795Z,1009.43
2016-12-03T00:01:41.534Z,1009.40
2016-12-03T00:02:08.041Z,1009.41
2016-12-03T00:02:29.768Z,1009.38
2016-12-03T00:02:52.490Z,1009.48
2016-12-03T00:03:14.231Z,1009.50
2016-12-03T00:03:35.953Z,1009.40
2016-12-03T00:03:57.683Z,1009.51
2016-12-03T00:04:19.394Z,1009.59
2016-12-03T00:04:41.136Z,1009.70
2016-12-03T00:05:07.628Z,1009.70
2016-12-03T00:06:01.673Z,1009.52
2016-12-03T00:06:23.416Z,1009.58
2016-12-03T00:06:45.137Z,1009.56
2016-12-03T00:07:06.865Z,1009.60
2016-12-03T00:07:29.583Z,1009.45
2016-12-03T00:07:51.304Z,1009.44
2016-12-03T00:08:13.026Z,1009.53
2016-12-03T00:08:34.748Z,1009.51
2016-12-03T00:08:56.470Z,1009.52
2016-12-03T00:09:18.324Z,1009.32
2016-12-03T00:09:40.042Z,1009.53
2016-12-03T00:10:01.769Z,1009.53
2016-12-03T00:10:23.474Z,1009.32
2016-12-03T00:10:45.196Z,1009.35
2016-12-03T00:11:06.905Z,1009.38
2016-12-03T00:11:28.635Z,1009.35
2016-12-03T00:11:50.371Z,1009.54
2016-12-03T00:12:12.088Z,1009.47
2016-12-03T00:12:36.219Z,1009.66
2016-12-03T00:12:57.931Z,1009.36
2016-12-03T00:13:19.658Z,1009.58
2016-12-03T00:13:42.375Z,1009.61
2016-12-03T00:14:04.093Z,1009.58
2016-12-03T00:14:25.822Z,1009.61
2016-12-03T00:14:47.539Z,1009.60
2016-12-03T00:15:09.279Z,1009.58
2016-12-03T00:15:31.003Z,1009.50
2016-12-03T00:15:52.724Z,1009.51
2016-12-03T00:16:15.451Z,1009.32
2016-12-03T00:16:37.162Z,1009.28
2016-12-03T00:16:58.884Z,1009.46
2016-12-03T00:17:20.595Z,1009.60
2016-12-03T00:17:42.317Z,1009.55
2016-12-03T00:18:04.047Z,1009.39
2016-12-03T00:18:25.760Z,1009.47
2016-12-03T00:18:47.486Z,1009.43
2016-12-03T00:19:09.214Z,1009.50
2016-12-03T00:19:30.925Z,1009.48
2016-12-03T00:19:53.731Z,1009.50
2016-12-03T00:20:15.442Z,1009.52
2016-12-03T00:20:37.158Z,1009.56
2016-12-03T00:20:59.875Z,1009.49
2016-12-03T00:21:21.591Z,1009.48
2016-12-03T00:21:43.313Z,1009.30
2016-12-03T00:22:05.037Z,1009.39
2016-12-03T00:22:26.772Z,1009.46
2016-12-03T00:22:48.500Z,1009.54
2016-12-03T00:23:10.230Z,1009.48
2016-12-03T00:23:31.962Z,1009.28
2016-12-03T00:23:53.697Z,1009.42
2016-12-03T00:24:15.415Z,1009.68
2016-12-03T00:24:38.144Z,1009.60
2016-12-03T00:24:59.904Z,1009.36
2016-12-03T00:25:21.619Z,1009.39
2016-12-03T00:25:43.333Z,1009.53
2016-12-03T00:26:05.072Z,1009.53
2016-12-03T00:26:26.803Z,1009.45
2016-12-03T00:26:48.533Z,1009.51
2016-12-03T00:27:10.250Z,1009.36
2016-12-03T00:27:31.966Z,1009.41
2016-12-03T00:27:53.674Z,1009.61
2016-12-03T00:28:15.395Z,1009.48
2016-12-03T00:28:37.105Z,1009.43
2016-12-03T00:28:58.819Z,1009.41
2016-12-03T00:29:20.539Z,1009.39
2016-12-03T00:29:42.263Z,1009.48
2016-12-03T00:30:03.987Z,1009.38
2016-12-03T00:30:25.707Z,1009.44
2016-12-03T00:30:47.478Z,1009.38
2016-12-03T00:31:13.956Z,1009.52
2016-12-03T00:31:35.677Z,1009.59
2016-12-03T00:31:57.390Z,1009.54
2016-12-03T00:32:19.107Z,1009.51
2016-12-03T00:32:40.841Z,1009.40
2016-12-03T00:33:02.573Z,1009.36
2016-12-03T00:33:24.280Z,1009.49
2016-12-03T00:33:46.007Z,1009.52
2016-12-03T00:34:07.725Z,1009.46
2016-12-03T00:34:29.460Z,1009.31
2016-12-03T00:34:51.190Z,1009.42
2016-12-03T00:35:12.900Z,1009.35
2016-12-03T00:35:34.618Z,1009.55
2016-12-03T00:35:56.333Z,1009.55
2016-12-03T00:36:19.055Z,1009.49
2016-12-03T00:36:40.775Z,1009.48
2016-12-03T00:37:02.546Z,1009.43
2016-12-03T00:37:24.252Z,1009.43
2016-12-03T00:37:45.982Z,1009.50
2016-12-03T00:38:07.710Z,1009.53
2016-12-03T00:38:34.209Z,1009.44
2016-12-03T00:38:55.913Z,1009.43
2016-12-03T00:39:17.656Z,1009.52
2016-12-03T00:39:39.385Z,1009.42
2016-12-03T00:40:01.105Z,1009.45
2016-12-03T00:40:22.836Z,1009.48
2016-12-03T00:40:49.324Z,1009.46
2016-12-03T00:41:11.047Z,1009.26
2016-12-03T00:41:32.772Z,1009.37
2016-12-03T00:41:54.481Z,1009.32
2016-12-03T00:42:16.194Z,1009.40
2016-12-03T00:42:37.906Z,1009.50
2016-12-03T00:42:59.635Z,1009.53
2016-12-03T00:43:26.118Z,1009.51
2016-12-03T00:43:47.829Z,1009.53
2016-12-03T00:44:09.553Z,1009.52
2016-12-03T00:44:36.039Z,1009.49
2016-12-03T00:44:57.768Z,1009.50
2016-12-03T00:45:19.486Z,1009.47
2016-12-03T00:45:41.199Z,1009.42
2016-12-03T00:46:02.966Z,1009.42
2016-12-03T00:46:51.196Z,1009.38
2016-12-03T00:47:12.944Z,1009.29
2016-12-03T00:47:34.656Z,1009.43
2016-12-03T00:47:56.365Z,1009.48
2016-12-03T00:48:18.084Z,1009.38
2016-12-03T00:48:39.789Z,1009.40
2016-12-03T00:49:01.508Z,1009.40
2016-12-03T00:49:23.225Z,1009.51
2016-12-03T00:49:44.937Z,1009.54
2016-12-03T00:50:06.656Z,1009.53
2016-12-03T00:50:28.375Z,1009.32
2016-12-03T00:50:50.098Z,1009.43
2016-12-03T00:51:11.806Z,1009.38
2016-12-03T00:51:33.517Z,1009.58
2016-12-03T00:51:55.238Z,1009.64
2016-12-03T00:52:16.975Z,1009.59
2016-12-03T00:52:38.697Z,1009.36
2016-12-03T00:53:00.409Z,1009.45
2016-12-03T00:53:22.121Z,1009.54
2016-12-03T00:53:43.839Z,1009.51
2016-12-03T00:54:05.575Z,1009.50
2016-12-03T00:54:27.289Z,1009.39
2016-12-03T00:54:49.006Z,1009.53
2016-12-03T00:55:10.734Z,1009.53
2016-12-03T00:55:32.462Z,1009.42
2016-12-03T00:55:54.183Z,1009.37
2016-12-03T00:56:15.894Z,1009.61
2016-12-03T00:56:37.611Z,1009.63
2016-12-03T00:56:59.341Z,1009.41
2016-12-03T00:57:21.063Z,1009.30
2016-12-03T00:57:42.783Z,1009.55
2016-12-03T00:58:04.501Z,1009.65
2016-12-03T00:58:26.216Z,1009.60
2016-12-03T00:58:47.939Z,1009.54
2016-12-03T00:59:09.684Z,1009.53
2016-12-03T00:59:31.401Z,1009.64
2016-12-03T00:59:53.112Z,1009.63
2016-12-03T01:00:14.833Z,1009.55
2016-12-03T01:00:41.349Z,1009.60
2016-12-03T01:01:03.066Z,1009.49
2016-12-03T01:01:24.792Z,1009.54
2016-12-03T01:01:46.511Z,1009.59
2016-12-03T01:02:08.237Z,1009.60
2016-12-03T01:02:29.949Z,1009.67
2016-12-03T01:02:51.672Z,1009.66
2016-12-03T01:03:13.384Z,1009.51
2016-12-03T01:03:37.637Z,1009.57
2016-12-03T01:03:59.359Z,1009.57
2016-12-03T01:04:21.074Z,1009.60
2016-12-03T01:04:42.786Z,1009.74
2016-12-03T01:05:04.510Z,1009.68
2016-12-03T01:05:26.229Z,1009.42
2016-12-03T01:05:52.735Z,1009.56
2016-12-03T01:06:14.447Z,1009.60
2016-12-03T01:06:36.176Z,1009.57
2016-12-03T01:06:57.891Z,1009.56
2016-12-03T01:07:19.624Z,1009.71
2016-12-03T01:07:41.345Z,1009.65
2016-12-03T01:08:03.068Z,1009.65
2016-12-03T01:08:24.780Z,1009.55
2016-12-03T01:08:46.504Z,1009.61
2016-12-03T01:09:08.212Z,1009.41
2016-12-03T01:09:29.951Z,1009.69
2016-12-03T01:09:51.674Z,1009.47
2016-12-03T01:10:13.389Z,1009.46
2016-12-03T01:10:35.108Z,1009.51
2016-12-03T01:10:56.820Z,1009.50
2016-12-03T01:11:18.541Z,1009.54
2016-12-03T01:11:40.256Z,1009.49
2016-12-03T01:12:01.971Z,1009.41
2016-12-03T01:12:23.693Z,1009.52
2016-12-03T01:12:45.404Z,1009.52
2016-12-03T01:13:07.136Z,1009.58
2016-12-03T01:13:28.844Z,1009.74
2016-12-03T01:13:50.564Z,1009.64
2016-12-03T01:14:12.299Z,1009.55
2016-12-03T01:14:34.027Z,1009.63
2016-12-03T01:14:55.757Z,1009.51
2016-12-03T01:15:17.468Z,1009.53
2016-12-03T01:15:39.186Z,1009.44
2016-12-03T01:16:00.987Z,1009.47
2016-12-03T01:16:23.734Z,1009.51
2016-12-03T01:16:45.454Z,1009.63
2016-12-03T01:17:08.170Z,1009.64
2016-12-03T01:17:29.893Z,1009.69
2016-12-03T01:17:51.612Z,1009.67
2016-12-03T01:18:13.329Z,1009.61
2016-12-03T01:18:36.037Z,1009.68
2016-12-03T01:18:57.764Z,1009.62
2016-12-03T01:19:19.494Z,1009.67
2016-12-03T01:19:42.208Z,1009.62
2016-12-03T01:20:03.941Z,1009.58
2016-12-03T01:20:25.654Z,1009.59
2016-12-03T01:20:47.376Z,1009.43
2016-12-03T01:21:09.106Z,1009.61
2016-12-03T01:21:30.829Z,1009.67
2016-12-03T01:21:52.547Z,1009.65
2016-12-03T01:22:14.264Z,1009.63
2016-12-03T01:22:35.991Z,1009.52
2016-12-03T01:22:57.710Z,1009.62
2016-12-03T01:23:19.426Z,1009.56
2016-12-03T01:23:41.147Z,1009.56
2016-12-03T01:24:02.861Z,1009.58
2016-12-03T01:24:24.571Z,1009.39
2016-12-03T01:24:46.294Z,1009.52
2016-12-03T01:25:08.009Z,1009.45
2016-12-03T01:25:29.730Z,1009.53
2016-12-03T01:25:51.471Z,1009.44
2016-12-03T01:26:13.182Z,1009.54
2016-12-03T01:26:34.904Z,1009.48
2016-12-03T01:26:56.621Z,1009.57
2016-12-03T01:27:18.333Z,1009.47
2016-12-03T01:27:40.045Z,1009.53
2016-12-03T01:28:06.536Z,1009.51
2016-12-03T01:28:28.248Z,1009.37
2016-12-03T01:28:49.973Z,1009.38
2016-12-03T01:29:11.699Z,1009.56
2016-12-03T01:29:33.408Z,1009.67
2016-12-03T01:29:55.137Z,1009.68
2016-12-03T01:30:16.862Z,1009.62
2016-12-03T01:30:38.582Z,1009.58
2016-12-03T01:31:00.297Z,1009.64
2016-12-03T01:31:22.013Z,1009.62
2016-12-03T01:31:43.727Z,1009.54
2016-12-03T01:32:05.469Z,1009.49
2016-12-03T01:32:27.192Z,1009.66
2016-12-03T01:32:48.902Z,1009.44
2016-12-03T01:33:10.624Z,1009.64
2016-12-03T01:33:32.349Z,1009.62
2016-12-03T01:33:54.072Z,1009.66
2016-12-03T01:34:15.793Z,1009.58
2016-12-03T01:34:37.515Z,1009.43
2016-12-03T01:34:59.250Z,1009.49
2016-12-03T01:35:20.957Z,1009.64
2016-12-03T01:35:42.676Z,1009.65
2016-12-03T01:36:04.400Z,1009.70
2016-12-03T01:36:26.126Z,1009.60
2016-12-03T01:36:47.845Z,1009.69
2016-12-03T01:37:09.563Z,1009.58
2016-12-03T01:37:31.280Z,1009.53
2016-12-03T01:37:52.998Z,1009.61
2016-12-03T01:38:14.747Z,1009.66
2016-12-03T01:38:36.468Z,1009.61
2016-12-03T01:38:58.189Z,1009.64
2016-12-03T01:39:19.915Z,1009.61
2016-12-03T01:39:41.618Z,1009.36
2016-12-03T01:40:03.338Z,1009.69
2016-12-03T01:40:25.054Z,1009.63
2016-12-03T01:40:46.770Z,1009.53
2016-12-03T01:41:08.489Z,1009.44
2016-12-03T01:41:30.206Z,1009.68
2016-12-03T01:41:51.945Z,1009.75
2016-12-03T01:42:13.665Z,1009.48
2016-12-03T01:42:35.389Z,1009.71
2016-12-03T01:43:01.891Z,1009.73
2016-12-03T01:43:23.601Z,1009.47
2016-12-03T01:43:45.320Z,1009.65
2016-12-03T01:44:07.050Z,1009.75
2016-12-03T01:44:29.765Z,1009.72
2016-12-03T01:44:51.487Z,1009.54
2016-12-03T01:45:13.207Z,1009.57
2016-12-03T01:45:35.261Z,1009.66
2016-12-03T01:45:56.980Z,1009.54
2016-12-03T01:46:18.700Z,1009.74
2016-12-03T01:46:40.413Z,1009.75
2016-12-03T01:47:02.131Z,1009.67
2016-12-03T01:47:23.854Z,1009.74
2016-12-03T01:47:45.574Z,1009.59
2016-12-03T01:48:07.284Z,1009.56
2016-12-03T01:48:28.995Z,1009.48
2016-12-03T01:48:50.738Z,1009.60
2016-12-03T01:49:12.482Z,1009.48
2016-12-03T01:49:34.198Z,1009.56
2016-12-03T01:49:55.915Z,1009.71
2016-12-03T01:50:17.628Z,1009.71
2016-12-03T01:50:39.345Z,1009.66
2016-12-03T01:51:01.080Z,1009.43
2016-12-03T01:51:22.801Z,1009.66
2016-12-03T01:51:44.529Z,1009.57
2016-12-03T01:52:06.256Z,1009.49
2016-12-03T01:52:27.976Z,1009.64
2016-12-03T01:52:50.697Z,1009.64
2016-12-03T01:53:15.393Z,1009.70
2016-12-03T01:53:37.143Z,1009.60
2016-12-03T01:53:58.851Z,1009.62
2016-12-03T01:54:20.574Z,1009.47
2016-12-03T01:54:42.291Z,1009.66
2016-12-03T01:55:04.010Z,1009.70
2016-12-03T01:55:25.732Z,1009.71
2016-12-03T01:55:48.454Z,1009.43
2016-12-03T01:56:10.172Z,1009.46
2016-12-03T01:56:31.890Z,1009.74
2016-12-03T01:56:53.600Z,1009.76
2016-12-03T01:57:15.331Z,1009.73
2016-12-03T01:57:37.052Z,1009.76
2016-12-03T01:57:58.766Z,1009.63
2016-12-03T01:58:20.497Z,1009.56
2016-12-03T01:58:42.214Z,1009.67
2016-12-03T01:59:03.934Z,1009.65
2016-12-03T01:59:25.654Z,1009.48
2016-12-03T01:59:47.440Z,1009.50
2016-12-03T02:00:09.158Z,1009.51
2016-12-03T02:00:30.876Z,1009.36
2016-12-03T02:00:53.647Z,1009.54
2016-12-03T02:01:15.374Z,1009.52
2016-12-03T02:01:37.097Z,1009.57
2016-12-03T02:01:59.807Z,1009.57
2016-12-03T02:02:21.523Z,1009.47
2016-12-03T02:02:43.258Z,1009.65
2016-12-03T02:03:04.975Z,1009.44
2016-12-03T02:03:26.689Z,1009.50
2016-12-03T02:03:48.412Z,1009.67
2016-12-03T02:04:10.175Z,1009.48
2016-12-03T02:04:31.882Z,1009.48
2016-12-03T02:04:53.599Z,1009.46
2016-12-03T02:05:15.315Z,1009.57
2016-12-03T02:05:38.034Z,1009.72
2016-12-03T02:06:00.775Z,1009.58
2016-12-03T02:06:22.489Z,1009.57
2016-12-03T02:07:10.692Z,1009.56
2016-12-03T02:07:32.409Z,1009.59
2016-12-03T02:07:54.126Z,1009.59
2016-12-03T02:08:15.853Z,1009.47
2016-12-03T02:08:37.585Z,1009.45
2016-12-03T02:09:04.077Z,1009.56
2016-12-03T02:09:25.792Z,1009.52
2016-12-03T02:09:47.512Z,1009.49
2016-12-03T02:10:09.225Z,1009.52
2016-12-03T02:10:30.943Z,1009.59
2016-12-03T02:10:52.682Z,1009.62
2016-12-03T02:11:14.404Z,1009.66
2016-12-03T02:11:36.125Z,1009.51
2016-12-03T02:11:57.848Z,1009.31
2016-12-03T02:12:19.568Z,1009.51
2016-12-03T02:12:41.279Z,1009.68
2016-12-03T02:13:02.988Z,1009.70
2016-12-03T02:13:24.702Z,1009.54
2016-12-03T02:13:46.424Z,1009.52
2016-12-03T02:14:08.134Z,1009.36
2016-12-03T02:14:29.930Z,1009.68
2016-12-03T02:14:51.638Z,1009.64
2016-12-03T02:15:18.137Z,1009.58
2016-12-03T02:15:39.853Z,1009.61
2016-12-03T02:16:01.572Z,1009.55
2016-12-03T02:16:23.281Z,1009.42
2016-12-03T02:16:45.009Z,1009.59
2016-12-03T02:17:06.725Z,1009.55
2016-12-03T02:17:28.463Z,1009.67
2016-12-03T02:17:50.180Z,1009.70
2016-12-03T02:18:11.910Z,1009.63
2016-12-03T02:18:33.633Z,1009.65
2016-12-03T02:18:55.356Z,1009.65
2016-12-03T02:19:17.061Z,1009.54
2016-12-03T02:19:38.778Z,1009.58
2016-12-03T02:20:00.503Z,1009.39
2016-12-03T02:20:22.221Z,1009.61
2016-12-03T02:20:43.932Z,1009.64
2016-12-03T02:21:05.650Z,1009.68
2016-12-03T02:21:27.381Z,1009.65
2016-12-03T02:21:49.097Z,1009.66
2016-12-03T02:22:10.811Z,1009.52
2016-12-03T02:22:32.533Z,1009.58
2016-12-03T02:22:54.244Z,1009.40
2016-12-03T02:23:15.962Z,1009.62
2016-12-03T02:23:37.707Z,1009.57
2016-12-03T02:23:59.461Z,1009.62
2016-12-03T02:24:21.182Z,1009.53
2016-12-03T02:24:42.893Z,1009.71
2016-12-03T02:25:04.603Z,1009.65
2016-12-03T02:25:26.455Z,1009.72
2016-12-03T02:25:48.169Z,1009.64
2016-12-03T02:26:12.532Z,1009.59
2016-12-03T02:27:00.739Z,1009.57
2016-12-03T02:27:22.463Z,1009.59
2016-12-03T02:27:44.172Z,1009.40
2016-12-03T02:28:05.903Z,1009.39
2016-12-03T02:28:27.612Z,1009.47
2016-12-03T02:28:49.359Z,1009.51
2016-12-03T02:29:11.217Z,1009.64
2016-12-03T02:29:32.940Z,1009.44
2016-12-03T02:29:54.661Z,1009.57
2016-12-03T02:30:16.377Z,1009.73
2016-12-03T02:30:38.083Z,1009.64
2016-12-03T02:30:59.798Z,1009.61
2016-12-03T02:31:21.510Z,1009.66
2016-12-03T02:31:43.230Z,1009.63
2016-12-03T02:32:04.947Z,1009.51
2016-12-03T02:32:26.674Z,1009.51
2016-12-03T02:32:48.417Z,1009.41
2016-12-03T02:33:10.164Z,1009.44
2016-12-03T02:33:31.878Z,1009.47
2016-12-03T02:33:53.584Z,1009.48
2016-12-03T02:34:15.301Z,1009.56
2016-12-03T02:34:37.007Z,1009.67
2016-12-03T02:34:58.739Z,1009.56
2016-12-03T02:35:20.451Z,1009.52
2016-12-03T02:35:42.172Z,1009.60
2016-12-03T02:36:03.897Z,1009.55
2016-12-03T02:36:25.626Z,1009.61
2016-12-03T02:36:47.340Z,1009.60
2016-12-03T02:37:09.055Z,1009.55
2016-12-03T02:37:30.770Z,1009.54
2016-12-03T02:37:52.478Z,1009.28
2016-12-03T02:38:14.301Z,1009.27
2016-12-03T02:38:36.024Z,1009.38
2016-12-03T02:38:57.742Z,1009.40
2016-12-03T02:39:19.480Z,1009.65
2016-12-03T02:39:41.204Z,1009.68
2016-12-03T02:40:02.919Z,1009.58
2016-12-03T02:40:24.632Z,1009.47
2016-12-03T02:40:46.354Z,1009.55
2016-12-03T02:41:08.077Z,1009.49
2016-12-03T02:41:29.803Z,1009.40
2016-12-03T02:41:51.518Z,1009.31
2016-12-03T02:42:13.261Z,1009.36
2016-12-03T02:42:34.978Z,1009.53
2016-12-03T02:42:56.812Z,1009.60
2016-12-03T02:43:18.526Z,1009.47
2016-12-03T02:43:40.235Z,1009.47
2016-12-03T02:44:01.948Z,1009.45
2016-12-03T02:44:23.663Z,1009.47
2016-12-03T02:44:45.382Z,1009.35
2016-12-03T02:45:07.090Z,1009.28
2016-12-03T02:45:28.814Z,1009.50
2016-12-03T02:45:50.551Z,1009.53
2016-12-03T02:46:12.271Z,1009.42
2016-12-03T02:46:34.001Z,1009.52
2016-12-03T02:46:55.722Z,1009.47
2016-12-03T02:47:17.430Z,1009.24
2016-12-03T02:47:39.144Z,1009.21
2016-12-03T02:48:00.855Z,1009.35
2016-12-03T02:48:22.797Z,1009.59
2016-12-03T02:48:44.515Z,1009.56
2016-12-03T02:49:06.223Z,1009.55
2016-12-03T02:49:27.936Z,1009.57
2016-12-03T02:49:49.689Z,1009.52
2016-12-03T02:50:11.407Z,1009.59
2016-12-03T02:50:33.133Z,1009.41
2016-12-03T02:50:54.844Z,1009.49
2016-12-03T02:51:16.559Z,1009.48
2016-12-03T02:51:38.275Z,1009.32
2016-12-03T02:51:59.997Z,1009.50
2016-12-03T02:52:21.715Z,1009.26
2016-12-03T02:52:43.436Z,1009.56
2016-12-03T02:53:05.146Z,1009.37
2016-12-03T02:53:26.869Z,1009.57
2016-12-03T02:53:53.357Z,1009.58
2016-12-03T02:54:15.097Z,1009.38
2016-12-03T02:54:36.826Z,1009.58
2016-12-03T02:54:58.546Z,1009.67
2016-12-03T02:55:20.256Z,1009.68
2016-12-03T02:55:41.971Z,1009.56
2016-12-03T02:56:03.695Z,1009.58
2016-12-03T02:56:25.411Z,1009.52
2016-12-03T02:56:47.130Z,1009.47
2016-12-03T02:57:08.864Z,1009.50
2016-12-03T02:57:30.559Z,1009.49
2016-12-03T02:57:52.275Z,1009.55
2016-12-03T02:58:13.994Z,1009.51
2016-12-03T02:58:35.725Z,1009.53
2016-12-03T02:58:57.433Z,1009.48
2016-12-03T02:59:19.146Z,1009.41
2016-12-03T02:59:40.857Z,1009.22
2016-12-03T03:00:02.574Z,1009.39
2016-12-03T03:00:24.298Z,1009.51
2016-12-03T03:00:46.014Z,1009.49
2016-12-03T03:01:07.740Z,1009.63
2016-12-03T03:01:29.462Z,1009.49
2016-12-03T03:01:51.186Z,1009.26
2016-12-03T03:02:12.900Z,1009.40
2016-12-03T03:02:34.621Z,1009.48
2016-12-03T03:02:56.359Z,1009.45
2016-12-03T03:03:18.071Z,1009.51
2016-12-03T03:03:39.831Z,1009.38
2016-12-03T03:04:01.552Z,1009.54
2016-12-03T03:04:23.265Z,1009.49
2016-12-03T03:04:44.979Z,1009.67
2016-12-03T03:05:06.718Z,1009.50
2016-12-03T03:05:28.427Z,1009.42
2016-12-03T03:05:54.913Z,1009.37
2016-12-03T03:06:16.635Z,1009.37
2016-12-03T03:06:38.345Z,1009.41
2016-12-03T03:07:00.076Z,1009.62
2016-12-03T03:07:24.602Z,1009.65
2016-12-03T03:07:46.338Z,1009.59
2016-12-03T03:08:08.062Z,1009.32
2016-12-03T03:08:29.830Z,1009.37
2016-12-03T03:08:51.550Z,1009.35
2016-12-03T03:09:13.285Z,1009.43
2016-12-03T03:09:35.003Z,1009.62
2016-12-03T03:09:56.720Z,1009.63
2016-12-03T03:10:18.442Z,1009.52
2016-12-03T03:10:40.163Z,1009.25
2016-12-03T03:11:01.893Z,1009.45
2016-12-03T03:11:23.615Z,1009.51
2016-12-03T03:11:45.336Z,1009.55
2016-12-03T03:12:07.040Z,1009.55
2016-12-03T03:12:28.759Z,1009.48
2016-12-03T03:12:50.493Z,1009.51
2016-12-03T03:13:12.206Z,1009.53
2016-12-03T03:13:33.918Z,1009.53
2016-12-03T03:13:55.646Z,1009.67
2016-12-03T03:14:17.346Z,1009.54
2016-12-03T03:14:39.088Z,1009.60
2016-12-03T03:15:00.817Z,1009.28
2016-12-03T03:15:22.537Z,1009.40
2016-12-03T03:15:44.275Z,1009.35
2016-12-03T03:16:06.002Z,1009.57
2016-12-03T03:16:28.713Z,1009.57
2016-12-03T03:16:50.445Z,1009.52
2016-12-03T03:17:12.199Z,1009.44
2016-12-03T03:17:33.914Z,1009.28
2016-12-03T03:17:55.629Z,1009.46
2016-12-03T03:18:17.342Z,1009.54
2016-12-03T03:18:39.063Z,1009.39
2016-12-03T03:19:00.777Z,1009.31
2016-12-03T03:19:22.496Z,1009.29
2016-12-03T03:19:44.335Z,1009.42
2016-12-03T03:20:06.052Z,1009.48
2016-12-03T03:20:27.769Z,1009.62
2016-12-03T03:20:49.485Z,1009.40
2016-12-03T03:21:11.197Z,1009.76
2016-12-03T03:21:32.911Z,1009.45
2016-12-03T03:21:54.645Z,1009.44
2016-12-03T03:22:16.360Z,1009.49
2016-12-03T03:22:38.067Z,1009.58
2016-12-03T03:22:59.787Z,1009.38
2016-12-03T03:23:21.512Z,1009.53
2016-12-03T03:23:44.228Z,1009.63
2016-12-03T03:24:05.941Z,1009.62
2016-12-03T03:24:27.669Z,1009.63
2016-12-03T03:24:49.389Z,1009.44
2016-12-03T03:25:11.109Z,1009.52
2016-12-03T03:25:32.822Z,1009.66
2016-12-03T03:25:54.548Z,1009.69
2016-12-03T03:26:16.261Z,1009.62
2016-12-03T03:26:37.979Z,1009.59
2016-12-03T03:26:59.694Z,1009.49
2016-12-03T03:27:21.410Z,1009.28
2016-12-03T03:27:43.136Z,1009.31
2016-12-03T03:28:04.849Z,1009.44
2016-12-03T03:28:26.571Z,1009.58
2016-12-03T03:28:53.068Z,1009.60
2016-12-03T03:29:14.778Z,1009.61
2016-12-03T03:29:36.500Z,1009.41
2016-12-03T03:29:58.359Z,1009.36
2016-12-03T03:30:51.339Z,1009.55
2016-12-03T03:31:13.064Z,1009.53
2016-12-03T03:31:34.785Z,1009.51
2016-12-03T03:31:56.502Z,1009.67
2016-12-03T03:32:18.220Z,1009.66
2016-12-03T03:32:40.002Z,1009.65
2016-12-03T03:33:11.264Z,1009.78
2016-12-03T03:33:38.764Z,1009.66
2016-12-03T03:34:00.490Z,1009.58
2016-12-03T03:34:22.206Z,1009.55
2016-12-03T03:34:48.758Z,1009.60
2016-12-03T03:35:10.515Z,1009.60
2016-12-03T03:35:32.240Z,1009.53
2016-12-03T03:35:53.958Z,1009.56
2016-12-03T03:36:42.154Z,1009.57
2016-12-03T03:37:09.646Z,1009.61
2016-12-03T03:37:31.367Z,1009.59
2016-12-03T03:37:53.087Z,1009.61
2016-12-03T03:38:14.916Z,1009.58
2016-12-03T03:38:36.883Z,1009.59
2016-12-03T03:38:58.599Z,1009.37
2016-12-03T03:39:20.313Z,1009.34
2016-12-03T03:39:42.050Z,1009.33
2016-12-03T03:40:03.750Z,1009.48
2016-12-03T03:40:25.479Z,1009.67
2016-12-03T03:40:47.198Z,1009.71
2016-12-03T03:41:08.904Z,1009.69
2016-12-03T03:41:30.619Z,1009.59
2016-12-03T03:41:52.335Z,1009.61
2016-12-03T03:42:14.053Z,1009.68
2016-12-03T03:42:35.768Z,1009.64
2016-12-03T03:42:57.492Z,1009.67
2016-12-03T03:43:19.208Z,1009.62
2016-12-03T03:43:40.921Z,1009.65
2016-12-03T03:44:02.644Z,1009.63
2016-12-03T03:44:24.358Z,1009.36
2016-12-03T03:44:46.074Z,1009.41
2016-12-03T03:45:07.789Z,1009.63
2016-12-03T03:45:29.511Z,1009.74
2016-12-03T03:45:51.226Z,1009.74
2016-12-03T03:46:12.960Z,1009.69
2016-12-03T03:46:34.682Z,1009.70
2016-12-03T03:46:56.415Z,1009.81
2016-12-03T03:47:18.101Z,1009.74
2016-12-03T03:47:39.816Z,1009.65
2016-12-03T03:48:01.545Z,1009.67
2016-12-03T03:48:23.257Z,1009.65
2016-12-03T03:48:44.981Z,1009.67
2016-12-03T03:49:06.695Z,1009.54
2016-12-03T03:49:28.414Z,1009.60
2016-12-03T03:49:50.148Z,1009.63
2016-12-03T03:50:11.866Z,1009.74
2016-12-03T03:50:33.583Z,1009.74
2016-12-03T03:50:55.295Z,1009.61
2016-12-03T03:51:17.003Z,1009.60
2016-12-03T03:51:38.746Z,1009.73
2016-12-03T03:52:00.457Z,1009.76
2016-12-03T03:52:22.178Z,1009.70
2016-12-03T03:52:43.904Z,1009.60
2016-12-03T03:53:05.626Z,1009.59
2016-12-03T03:53:27.381Z,1009.66
2016-12-03T03:53:49.125Z,1009.61
2016-12-03T03:54:10.845Z,1009.56
2016-12-03T03:54:32.569Z,1009.64
2016-12-03T03:54:54.283Z,1009.57
2016-12-03T03:55:15.995Z,1009.38
2016-12-03T03:55:37.713Z,1009.33
2016-12-03T03:55:59.424Z,1009.40
2016-12-03T03:56:21.137Z,1009.59
2016-12-03T03:56:42.852Z,1009.67
2016-12-03T03:57:04.572Z,1009.81
2016-12-03T03:57:26.284Z,1009.64
2016-12-03T03:57:47.994Z,1009.57
2016-12-03T03:58:09.701Z,1009.49
2016-12-03T03:58:31.409Z,1009.66
2016-12-03T03:58:53.118Z,1009.75
2016-12-03T03:59:14.837Z,1009.78
2016-12-03T03:59:36.544Z,1009.79
2016-12-03T03:59:58.257Z,1009.74
2016-12-03T04:00:19.977Z,1009.69
2016-12-03T04:00:41.688Z,1009.59
2016-12-03T04:01:03.404Z,1009.37
2016-12-03T04:01:29.883Z,1009.67
2016-12-03T04:01:51.615Z,1009.76
2016-12-03T04:02:13.332Z,1009.82
2016-12-03T04:02:35.064Z,1009.74
2016-12-03T04:02:57.766Z,1009.72
2016-12-03T04:03:19.478Z,1009.79
2016-12-03T04:03:41.193Z,1009.74
2016-12-03T04:04:02.906Z,1009.68
2016-12-03T04:04:29.451Z,1009.82
2016-12-03T04:04:51.173Z,1009.76
2016-12-03T04:05:12.893Z,1009.72
2016-12-03T04:05:34.610Z,1009.73
2016-12-03T04:05:56.327Z,1009.70
2016-12-03T04:06:18.041Z,1009.72
2016-12-03T04:06:39.751Z,1009.75
2016-12-03T04:07:01.477Z,1009.50
2016-12-03T04:07:23.194Z,1009.66
2016-12-03T04:07:44.907Z,1009.76
2016-12-03T04:08:06.614Z,1009.85
2016-12-03T04:08:28.327Z,1009.76
2016-12-03T04:08:50.043Z,1009.78
2016-12-03T04:09:11.763Z,1009.72
2016-12-03T04:09:33.489Z,1009.62
2016-12-03T04:09:55.198Z,1009.71
2016-12-03T04:10:16.918Z,1009.66
2016-12-03T04:10:38.629Z,1009.66
2016-12-03T04:11:00.359Z,1009.54
2016-12-03T04:11:22.068Z,1009.62
2016-12-03T04:11:43.798Z,1009.63
2016-12-03T04:12:05.565Z,1009.51
2016-12-03T04:12:27.271Z,1009.46
2016-12-03T04:12:48.983Z,1009.52
2016-12-03T04:13:10.702Z,1009.65
2016-12-03T04:13:32.427Z,1009.89
2016-12-03T04:13:54.131Z,1009.87
2016-12-03T04:14:15.846Z,1009.91
2016-12-03T04:14:37.568Z,1009.88
2016-12-03T04:14:59.281Z,1009.81
2016-12-03T04:15:21.000Z,1009.82
2016-12-03T04:15:42.705Z,1009.81
2016-12-03T04:16:04.430Z,1009.55
2016-12-03T04:16:26.144Z,1009.86
2016-12-03T04:16:47.869Z,1009.82
2016-12-03T04:17:10.588Z,1009.59
2016-12-03T04:17:32.295Z,1009.81
2016-12-03T04:17:54.022Z,1009.76
2016-12-03T04:18:15.738Z,1009.77
2016-12-03T04:18:37.458Z,1009.85
2016-12-03T04:19:00.174Z,1009.80
2016-12-03T04:19:21.888Z,1009.63
2016-12-03T04:19:48.381Z,1009.73
2016-12-03T04:20:10.091Z,1009.65
2016-12-03T04:20:32.933Z,1009.67
2016-12-03T04:20:54.650Z,1009.60
2016-12-03T04:21:42.872Z,1009.77
2016-12-03T04:22:04.592Z,1009.86
2016-12-03T04:22:26.314Z,1009.80
2016-12-03T04:22:48.035Z,1009.84
2016-12-03T04:23:09.755Z,1009.59
2016-12-03T04:23:31.461Z,1009.71
2016-12-03T04:23:53.180Z,1009.62
2016-12-03T04:24:14.887Z,1009.63
2016-12-03T04:25:17.728Z,1009.90
2016-12-03T04:25:39.449Z,1009.97
2016-12-03T04:26:01.158Z,1009.98
2016-12-03T04:26:22.873Z,1009.92
2016-12-03T04:26:44.723Z,1009.68
2016-12-03T04:27:06.448Z,1009.88
2016-12-03T04:27:28.167Z,1009.89
2016-12-03T04:27:49.880Z,1009.96
2016-12-03T04:28:11.618Z,1009.92
2016-12-03T04:28:33.326Z,1009.90
2016-12-03T04:28:55.058Z,1009.91
2016-12-03T04:29:16.774Z,1009.90